sensor_id;sensor_type;location;lat;lon;timestamp;P1;durP1;ratioP1;P2;durP2;ratioP2
17796;SDS011;55596;53.554;9.916;2022-10-16T00:00:36;12.03;;;10.00;;
17796;SDS011;55596;53.554;9.916;2022-10-16T00:03:05;11.93;;;9.77;;
17796;SDS011;55596;53.554;9.916;2022-10-16T00:05:32;14.57;;;9.20;;
17796;SDS011;55596;53.554;9.916;2022-10-16T00:08:04;9.93;;;8.93;;
17796;SDS011;55596;53.554;9.916;2022-10-16T00:10:32;9.47;;;8.47;;
17796;SDS011;55596;53.554;9.916;2022-10-16T00:12:59;8.43;;;7.53;;
17796;SDS011;55596;53.554;9.916;2022-10-16T00:15:26;11.57;;;7.30;;
17796;SDS011;55596;53.554;9.916;2022-10-16T00:17:54;9.70;;;6.20;;
17796;SDS011;55596;53.554;9.916;2022-10-16T00:20:20;10.43;;;6.23;;
17796;SDS011;55596;53.554;9.916;2022-10-16T00:22:47;7.00;;;5.63;;
17796;SDS011;55596;53.554;9.916;2022-10-16T00:25:14;12.03;;;5.53;;
17796;SDS011;55596;53.554;9.916;2022-10-16T00:27:42;8.47;;;4.57;;
17796;SDS011;55596;53.554;9.916;2022-10-16T00:30:09;7.87;;;4.50;;
17796;SDS011;55596;53.554;9.916;2022-10-16T00:35:07;8.33;;;4.47;;
17796;SDS011;55596;53.554;9.916;2022-10-16T00:37:34;5.73;;;3.43;;
17796;SDS011;55596;53.554;9.916;2022-10-16T00:40:00;8.10;;;3.47;;
17796;SDS011;55596;53.554;9.916;2022-10-16T00:42:27;6.63;;;3.67;;
17796;SDS011;55596;53.554;9.916;2022-10-16T00:44:56;8.40;;;3.70;;
17796;SDS011;55596;53.554;9.916;2022-10-16T00:47:24;6.80;;;3.13;;
17796;SDS011;55596;53.554;9.916;2022-10-16T00:49:55;5.10;;;3.00;;
17796;SDS011;55596;53.554;9.916;2022-10-16T00:52:26;8.30;;;2.87;;
17796;SDS011;55596;53.554;9.916;2022-10-16T00:54:53;5.77;;;3.07;;
17796;SDS011;55596;53.554;9.916;2022-10-16T00:57:21;5.57;;;3.00;;
17796;SDS011;55596;53.554;9.916;2022-10-16T00:59:48;7.57;;;2.83;;
17796;SDS011;55596;53.554;9.916;2022-10-16T01:02:16;6.83;;;2.70;;
17796;SDS011;55596;53.554;9.916;2022-10-16T01:04:44;3.93;;;2.50;;
17796;SDS011;55596;53.554;9.916;2022-10-16T01:07:15;4.00;;;2.40;;
17796;SDS011;55596;53.554;9.916;2022-10-16T01:09:51;5.13;;;3.07;;
17796;SDS011;55596;53.554;9.916;2022-10-16T01:12:29;5.53;;;2.03;;
17796;SDS011;55596;53.554;9.916;2022-10-16T01:15:06;5.97;;;2.20;;
17796;SDS011;55596;53.554;9.916;2022-10-16T01:17:40;4.83;;;2.50;;
17796;SDS011;55596;53.554;9.916;2022-10-16T01:20:13;4.97;;;2.10;;
17796;SDS011;55596;53.554;9.916;2022-10-16T01:22:49;6.70;;;2.13;;
17796;SDS011;55596;53.554;9.916;2022-10-16T01:25:25;4.60;;;2.53;;
17796;SDS011;55596;53.554;9.916;2022-10-16T01:27:59;2.40;;;2.00;;
17796;SDS011;55596;53.554;9.916;2022-10-16T01:30:29;4.73;;;2.17;;
17796;SDS011;55596;53.554;9.916;2022-10-16T01:32:59;3.43;;;2.27;;
17796;SDS011;55596;53.554;9.916;2022-10-16T01:35:33;4.83;;;2.30;;
17796;SDS011;55596;53.554;9.916;2022-10-16T01:38:03;5.73;;;2.07;;
17796;SDS011;55596;53.554;9.916;2022-10-16T01:40:34;5.37;;;2.03;;
17796;SDS011;55596;53.554;9.916;2022-10-16T01:43:06;5.80;;;2.13;;
17796;SDS011;55596;53.554;9.916;2022-10-16T01:45:40;4.77;;;1.93;;
17796;SDS011;55596;53.554;9.916;2022-10-16T01:48:10;4.13;;;1.90;;
17796;SDS011;55596;53.554;9.916;2022-10-16T01:50:39;5.53;;;1.90;;
17796;SDS011;55596;53.554;9.916;2022-10-16T01:53:09;4.37;;;1.80;;
17796;SDS011;55596;53.554;9.916;2022-10-16T01:55:40;4.53;;;1.97;;
17796;SDS011;55596;53.554;9.916;2022-10-16T01:58:12;6.67;;;2.20;;
17796;SDS011;55596;53.554;9.916;2022-10-16T02:00:41;3.27;;;1.60;;
17796;SDS011;55596;53.554;9.916;2022-10-16T02:03:10;3.37;;;2.13;;
17796;SDS011;55596;53.554;9.916;2022-10-16T02:05:41;7.77;;;2.07;;
17796;SDS011;55596;53.554;9.916;2022-10-16T02:08:11;4.70;;;2.30;;
17796;SDS011;55596;53.554;9.916;2022-10-16T02:10:41;4.07;;;2.13;;
17796;SDS011;55596;53.554;9.916;2022-10-16T02:13:09;3.70;;;1.90;;
17796;SDS011;55596;53.554;9.916;2022-10-16T02:15:39;7.70;;;1.87;;
17796;SDS011;55596;53.554;9.916;2022-10-16T02:18:07;8.03;;;2.10;;
17796;SDS011;55596;53.554;9.916;2022-10-16T02:20:36;6.40;;;2.17;;
17796;SDS011;55596;53.554;9.916;2022-10-16T02:23:18;4.13;;;1.93;;
17796;SDS011;55596;53.554;9.916;2022-10-16T02:25:49;4.03;;;2.00;;
17796;SDS011;55596;53.554;9.916;2022-10-16T02:28:22;3.80;;;1.50;;
17796;SDS011;55596;53.554;9.916;2022-10-16T02:30:55;5.47;;;1.97;;
17796;SDS011;55596;53.554;9.916;2022-10-16T02:33:25;4.00;;;1.80;;
17796;SDS011;55596;53.554;9.916;2022-10-16T02:35:53;3.80;;;2.00;;
17796;SDS011;55596;53.554;9.916;2022-10-16T02:38:21;3.23;;;1.60;;
17796;SDS011;55596;53.554;9.916;2022-10-16T02:40:53;3.63;;;1.70;;
17796;SDS011;55596;53.554;9.916;2022-10-16T02:43:22;3.03;;;1.67;;
17796;SDS011;55596;53.554;9.916;2022-10-16T02:45:50;4.80;;;1.90;;
17796;SDS011;55596;53.554;9.916;2022-10-16T02:48:17;4.23;;;1.67;;
17796;SDS011;55596;53.554;9.916;2022-10-16T02:50:44;5.17;;;1.40;;
17796;SDS011;55596;53.554;9.916;2022-10-16T02:53:10;2.83;;;1.30;;
17796;SDS011;55596;53.554;9.916;2022-10-16T02:55:37;4.33;;;2.30;;
17796;SDS011;55596;53.554;9.916;2022-10-16T02:58:04;7.83;;;2.67;;
17796;SDS011;55596;53.554;9.916;2022-10-16T03:00:32;5.57;;;2.40;;
17796;SDS011;55596;53.554;9.916;2022-10-16T03:02:59;5.50;;;2.20;;
17796;SDS011;55596;53.554;9.916;2022-10-16T03:05:26;5.50;;;2.03;;
17796;SDS011;55596;53.554;9.916;2022-10-16T03:07:52;4.13;;;1.80;;
17796;SDS011;55596;53.554;9.916;2022-10-16T03:10:19;3.70;;;1.80;;
17796;SDS011;55596;53.554;9.916;2022-10-16T03:12:46;6.37;;;1.60;;
17796;SDS011;55596;53.554;9.916;2022-10-16T03:15:13;2.80;;;1.50;;
17796;SDS011;55596;53.554;9.916;2022-10-16T03:17:41;8.03;;;1.90;;
17796;SDS011;55596;53.554;9.916;2022-10-16T03:20:08;5.43;;;1.43;;
17796;SDS011;55596;53.554;9.916;2022-10-16T03:22:35;6.17;;;1.67;;
17796;SDS011;55596;53.554;9.916;2022-10-16T03:25:02;5.63;;;1.87;;
17796;SDS011;55596;53.554;9.916;2022-10-16T03:27:29;6.20;;;1.83;;
17796;SDS011;55596;53.554;9.916;2022-10-16T03:29:56;3.03;;;1.77;;
17796;SDS011;55596;53.554;9.916;2022-10-16T03:32:23;8.17;;;1.97;;
17796;SDS011;55596;53.554;9.916;2022-10-16T03:34:52;3.83;;;1.67;;
17796;SDS011;55596;53.554;9.916;2022-10-16T03:37:19;5.57;;;1.80;;
17796;SDS011;55596;53.554;9.916;2022-10-16T03:39:46;5.07;;;1.73;;
17796;SDS011;55596;53.554;9.916;2022-10-16T03:42:12;3.27;;;1.70;;
17796;SDS011;55596;53.554;9.916;2022-10-16T03:44:39;5.80;;;1.90;;
17796;SDS011;55596;53.554;9.916;2022-10-16T03:47:06;6.50;;;2.23;;
17796;SDS011;55596;53.554;9.916;2022-10-16T03:49:33;8.43;;;2.13;;
17796;SDS011;55596;53.554;9.916;2022-10-16T03:52:01;8.50;;;1.63;;
17796;SDS011;55596;53.554;9.916;2022-10-16T03:54:28;3.43;;;1.60;;
17796;SDS011;55596;53.554;9.916;2022-10-16T03:56:55;3.90;;;1.40;;
17796;SDS011;55596;53.554;9.916;2022-10-16T03:59:21;11.07;;;2.10;;
17796;SDS011;55596;53.554;9.916;2022-10-16T04:01:48;5.83;;;1.80;;
17796;SDS011;55596;53.554;9.916;2022-10-16T04:04:15;3.13;;;1.57;;
17796;SDS011;55596;53.554;9.916;2022-10-16T04:06:41;3.27;;;1.67;;
17796;SDS011;55596;53.554;9.916;2022-10-16T04:09:09;5.87;;;1.63;;
17796;SDS011;55596;53.554;9.916;2022-10-16T04:11:36;4.40;;;1.37;;
17796;SDS011;55596;53.554;9.916;2022-10-16T04:14:04;3.90;;;1.67;;
17796;SDS011;55596;53.554;9.916;2022-10-16T04:16:30;5.97;;;2.00;;
17796;SDS011;55596;53.554;9.916;2022-10-16T04:18:57;5.60;;;1.73;;
17796;SDS011;55596;53.554;9.916;2022-10-16T04:21:24;6.97;;;2.30;;
17796;SDS011;55596;53.554;9.916;2022-10-16T04:23:51;6.83;;;1.80;;
17796;SDS011;55596;53.554;9.916;2022-10-16T04:26:19;2.73;;;1.37;;
17796;SDS011;55596;53.554;9.916;2022-10-16T04:28:45;4.63;;;1.57;;
17796;SDS011;55596;53.554;9.916;2022-10-16T04:31:12;4.30;;;1.47;;
17796;SDS011;55596;53.554;9.916;2022-10-16T04:33:41;7.97;;;1.53;;
17796;SDS011;55596;53.554;9.916;2022-10-16T04:36:08;3.87;;;1.50;;
17796;SDS011;55596;53.554;9.916;2022-10-16T04:38:35;4.20;;;1.70;;
17796;SDS011;55596;53.554;9.916;2022-10-16T04:41:04;10.63;;;2.30;;
17796;SDS011;55596;53.554;9.916;2022-10-16T04:43:33;5.80;;;2.00;;
17796;SDS011;55596;53.554;9.916;2022-10-16T04:46:00;7.20;;;2.50;;
17796;SDS011;55596;53.554;9.916;2022-10-16T04:48:29;5.50;;;2.10;;
17796;SDS011;55596;53.554;9.916;2022-10-16T04:50:56;4.60;;;2.10;;
17796;SDS011;55596;53.554;9.916;2022-10-16T04:53:23;8.43;;;2.50;;
17796;SDS011;55596;53.554;9.916;2022-10-16T04:55:50;5.17;;;2.33;;
17796;SDS011;55596;53.554;9.916;2022-10-16T04:58:16;7.73;;;2.50;;
17796;SDS011;55596;53.554;9.916;2022-10-16T05:00:45;8.57;;;2.63;;
17796;SDS011;55596;53.554;9.916;2022-10-16T05:03:12;5.10;;;2.60;;
17796;SDS011;55596;53.554;9.916;2022-10-16T05:05:41;6.87;;;3.00;;
17796;SDS011;55596;53.554;9.916;2022-10-16T05:08:09;8.30;;;2.90;;
17796;SDS011;55596;53.554;9.916;2022-10-16T05:10:36;9.33;;;3.40;;
17796;SDS011;55596;53.554;9.916;2022-10-16T05:13:02;6.43;;;3.07;;
17796;SDS011;55596;53.554;9.916;2022-10-16T05:15:29;8.00;;;2.77;;
17796;SDS011;55596;53.554;9.916;2022-10-16T05:17:57;9.43;;;2.90;;
17796;SDS011;55596;53.554;9.916;2022-10-16T05:20:24;5.87;;;3.30;;
17796;SDS011;55596;53.554;9.916;2022-10-16T05:22:51;8.03;;;3.47;;
17796;SDS011;55596;53.554;9.916;2022-10-16T05:25:17;5.40;;;3.27;;
17796;SDS011;55596;53.554;9.916;2022-10-16T05:27:46;12.77;;;3.20;;
17796;SDS011;55596;53.554;9.916;2022-10-16T05:30:14;7.63;;;3.70;;
17796;SDS011;55596;53.554;9.916;2022-10-16T05:32:41;6.80;;;3.30;;
17796;SDS011;55596;53.554;9.916;2022-10-16T05:35:13;9.70;;;3.07;;
17796;SDS011;55596;53.554;9.916;2022-10-16T05:37:40;7.40;;;2.80;;
17796;SDS011;55596;53.554;9.916;2022-10-16T05:40:07;6.70;;;3.40;;
17796;SDS011;55596;53.554;9.916;2022-10-16T05:42:35;4.77;;;2.60;;
17796;SDS011;55596;53.554;9.916;2022-10-16T05:45:02;9.13;;;2.83;;
17796;SDS011;55596;53.554;9.916;2022-10-16T05:47:30;6.97;;;2.83;;
17796;SDS011;55596;53.554;9.916;2022-10-16T05:49:56;8.17;;;2.57;;
17796;SDS011;55596;53.554;9.916;2022-10-16T05:52:24;4.47;;;2.40;;
17796;SDS011;55596;53.554;9.916;2022-10-16T05:54:53;6.60;;;2.47;;
17796;SDS011;55596;53.554;9.916;2022-10-16T05:57:19;5.60;;;2.50;;
17796;SDS011;55596;53.554;9.916;2022-10-16T05:59:46;4.67;;;2.40;;
17796;SDS011;55596;53.554;9.916;2022-10-16T06:02:13;4.17;;;2.10;;
17796;SDS011;55596;53.554;9.916;2022-10-16T06:04:40;4.63;;;2.30;;
17796;SDS011;55596;53.554;9.916;2022-10-16T06:07:07;6.10;;;2.40;;
17796;SDS011;55596;53.554;9.916;2022-10-16T06:09:35;8.00;;;2.40;;
17796;SDS011;55596;53.554;9.916;2022-10-16T06:12:02;11.40;;;2.60;;
17796;SDS011;55596;53.554;9.916;2022-10-16T06:14:29;7.20;;;2.33;;
17796;SDS011;55596;53.554;9.916;2022-10-16T06:16:56;6.97;;;2.37;;
17796;SDS011;55596;53.554;9.916;2022-10-16T06:19:25;7.30;;;2.73;;
17796;SDS011;55596;53.554;9.916;2022-10-16T06:21:51;6.90;;;2.40;;
17796;SDS011;55596;53.554;9.916;2022-10-16T06:24:18;5.70;;;2.20;;
17796;SDS011;55596;53.554;9.916;2022-10-16T06:26:46;5.73;;;2.77;;
17796;SDS011;55596;53.554;9.916;2022-10-16T06:29:13;5.97;;;2.20;;
17796;SDS011;55596;53.554;9.916;2022-10-16T06:31:40;10.03;;;2.47;;
17796;SDS011;55596;53.554;9.916;2022-10-16T06:34:08;3.77;;;2.47;;
17796;SDS011;55596;53.554;9.916;2022-10-16T06:36:36;4.90;;;2.70;;
17796;SDS011;55596;53.554;9.916;2022-10-16T06:39:04;6.03;;;2.93;;
17796;SDS011;55596;53.554;9.916;2022-10-16T06:41:34;5.73;;;2.60;;
17796;SDS011;55596;53.554;9.916;2022-10-16T06:44:04;5.67;;;3.67;;
17796;SDS011;55596;53.554;9.916;2022-10-16T06:46:31;4.97;;;2.67;;
17796;SDS011;55596;53.554;9.916;2022-10-16T06:48:58;6.13;;;3.40;;
17796;SDS011;55596;53.554;9.916;2022-10-16T06:51:25;4.10;;;2.53;;
17796;SDS011;55596;53.554;9.916;2022-10-16T06:53:52;6.83;;;2.63;;
17796;SDS011;55596;53.554;9.916;2022-10-16T06:56:22;13.17;;;3.27;;
17796;SDS011;55596;53.554;9.916;2022-10-16T06:58:50;3.47;;;2.23;;
17796;SDS011;55596;53.554;9.916;2022-10-16T07:01:21;4.97;;;2.40;;
17796;SDS011;55596;53.554;9.916;2022-10-16T07:03:49;7.07;;;3.10;;
17796;SDS011;55596;53.554;9.916;2022-10-16T07:06:17;6.80;;;2.50;;
17796;SDS011;55596;53.554;9.916;2022-10-16T07:08:45;6.77;;;3.00;;
17796;SDS011;55596;53.554;9.916;2022-10-16T07:11:15;5.47;;;2.90;;
17796;SDS011;55596;53.554;9.916;2022-10-16T07:13:43;6.23;;;3.10;;
17796;SDS011;55596;53.554;9.916;2022-10-16T07:16:11;7.67;;;2.60;;
17796;SDS011;55596;53.554;9.916;2022-10-16T07:18:43;3.97;;;2.57;;
17796;SDS011;55596;53.554;9.916;2022-10-16T07:21:14;7.87;;;3.20;;
17796;SDS011;55596;53.554;9.916;2022-10-16T07:23:44;8.90;;;3.40;;
17796;SDS011;55596;53.554;9.916;2022-10-16T07:26:12;5.27;;;3.00;;
17796;SDS011;55596;53.554;9.916;2022-10-16T07:28:39;6.87;;;3.20;;
17796;SDS011;55596;53.554;9.916;2022-10-16T07:31:10;7.43;;;2.90;;
17796;SDS011;55596;53.554;9.916;2022-10-16T07:33:41;4.83;;;3.30;;
17796;SDS011;55596;53.554;9.916;2022-10-16T07:36:09;7.93;;;3.17;;
17796;SDS011;55596;53.554;9.916;2022-10-16T07:38:36;8.17;;;3.10;;
17796;SDS011;55596;53.554;9.916;2022-10-16T07:41:04;9.60;;;3.37;;
17796;SDS011;55596;53.554;9.916;2022-10-16T07:43:32;4.80;;;2.77;;
17796;SDS011;55596;53.554;9.916;2022-10-16T07:46:00;5.67;;;3.23;;
17796;SDS011;55596;53.554;9.916;2022-10-16T07:48:29;4.27;;;2.80;;
17796;SDS011;55596;53.554;9.916;2022-10-16T07:51:00;6.63;;;2.67;;
17796;SDS011;55596;53.554;9.916;2022-10-16T07:53:27;5.80;;;3.00;;
17796;SDS011;55596;53.554;9.916;2022-10-16T07:55:56;5.53;;;2.67;;
17796;SDS011;55596;53.554;9.916;2022-10-16T07:58:24;5.63;;;2.80;;
17796;SDS011;55596;53.554;9.916;2022-10-16T08:00:51;8.67;;;2.67;;
17796;SDS011;55596;53.554;9.916;2022-10-16T08:03:18;4.30;;;3.07;;
17796;SDS011;55596;53.554;9.916;2022-10-16T08:05:45;6.43;;;2.87;;
17796;SDS011;55596;53.554;9.916;2022-10-16T08:08:14;8.93;;;3.27;;
17796;SDS011;55596;53.554;9.916;2022-10-16T08:10:42;6.60;;;3.10;;
17796;SDS011;55596;53.554;9.916;2022-10-16T08:13:09;6.03;;;2.80;;
17796;SDS011;55596;53.554;9.916;2022-10-16T08:15:37;5.07;;;3.13;;
17796;SDS011;55596;53.554;9.916;2022-10-16T08:18:04;8.17;;;3.47;;
17796;SDS011;55596;53.554;9.916;2022-10-16T08:20:32;8.63;;;3.37;;
17796;SDS011;55596;53.554;9.916;2022-10-16T08:22:59;6.03;;;2.83;;
17796;SDS011;55596;53.554;9.916;2022-10-16T08:25:28;4.30;;;2.60;;
17796;SDS011;55596;53.554;9.916;2022-10-16T08:27:55;6.70;;;3.00;;
17796;SDS011;55596;53.554;9.916;2022-10-16T08:30:23;8.83;;;3.10;;
17796;SDS011;55596;53.554;9.916;2022-10-16T08:32:50;2.70;;;2.40;;
17796;SDS011;55596;53.554;9.916;2022-10-16T08:35:17;6.77;;;2.87;;
17796;SDS011;55596;53.554;9.916;2022-10-16T08:37:44;5.53;;;2.70;;
17796;SDS011;55596;53.554;9.916;2022-10-16T08:40:16;14.13;;;2.57;;
17796;SDS011;55596;53.554;9.916;2022-10-16T08:43:00;4.77;;;2.50;;
17796;SDS011;55596;53.554;9.916;2022-10-16T08:45:58;4.30;;;2.30;;
17796;SDS011;55596;53.554;9.916;2022-10-16T08:48:42;3.00;;;2.00;;
17796;SDS011;55596;53.554;9.916;2022-10-16T08:51:13;7.27;;;2.73;;
17796;SDS011;55596;53.554;9.916;2022-10-16T08:53:49;6.30;;;2.00;;
17796;SDS011;55596;53.554;9.916;2022-10-16T08:56:19;3.50;;;2.30;;
17796;SDS011;55596;53.554;9.916;2022-10-16T08:58:48;3.63;;;1.80;;
17796;SDS011;55596;53.554;9.916;2022-10-16T09:01:17;4.03;;;2.10;;
17796;SDS011;55596;53.554;9.916;2022-10-16T09:03:57;6.10;;;2.00;;
17796;SDS011;55596;53.554;9.916;2022-10-16T09:06:36;4.07;;;2.23;;
17796;SDS011;55596;53.554;9.916;2022-10-16T09:09:20;3.60;;;2.00;;
17796;SDS011;55596;53.554;9.916;2022-10-16T09:12:02;6.73;;;2.00;;
17796;SDS011;55596;53.554;9.916;2022-10-16T09:14:39;3.73;;;1.80;;
17796;SDS011;55596;53.554;9.916;2022-10-16T09:17:24;3.47;;;1.50;;
17796;SDS011;55596;53.554;9.916;2022-10-16T09:20:12;2.30;;;1.40;;
17796;SDS011;55596;53.554;9.916;2022-10-16T09:22:44;3.63;;;1.20;;
17796;SDS011;55596;53.554;9.916;2022-10-16T09:25:12;6.90;;;1.90;;
17796;SDS011;55596;53.554;9.916;2022-10-16T09:27:40;4.30;;;1.60;;
17796;SDS011;55596;53.554;9.916;2022-10-16T09:30:13;5.17;;;1.60;;
17796;SDS011;55596;53.554;9.916;2022-10-16T09:32:41;4.23;;;1.50;;
17796;SDS011;55596;53.554;9.916;2022-10-16T09:35:14;2.10;;;1.37;;
17796;SDS011;55596;53.554;9.916;2022-10-16T09:37:44;6.33;;;1.00;;
17796;SDS011;55596;53.554;9.916;2022-10-16T09:40:23;8.43;;;1.83;;
17796;SDS011;55596;53.554;9.916;2022-10-16T09:42:51;4.50;;;1.23;;
17796;SDS011;55596;53.554;9.916;2022-10-16T09:45:25;3.73;;;1.50;;
17796;SDS011;55596;53.554;9.916;2022-10-16T09:47:52;4.40;;;1.30;;
17796;SDS011;55596;53.554;9.916;2022-10-16T09:50:20;3.13;;;1.20;;
17796;SDS011;55596;53.554;9.916;2022-10-16T09:52:49;4.43;;;1.33;;
17796;SDS011;55596;53.554;9.916;2022-10-16T09:55:17;5.27;;;1.47;;
17796;SDS011;55596;53.554;9.916;2022-10-16T09:57:50;5.77;;;1.63;;
17796;SDS011;55596;53.554;9.916;2022-10-16T10:00:18;3.30;;;1.50;;
17796;SDS011;55596;53.554;9.916;2022-10-16T10:02:47;5.03;;;1.23;;
17796;SDS011;55596;53.554;9.916;2022-10-16T10:05:18;4.83;;;1.53;;
17796;SDS011;55596;53.554;9.916;2022-10-16T10:07:53;5.90;;;1.50;;
17796;SDS011;55596;53.554;9.916;2022-10-16T10:10:22;5.77;;;1.63;;
17796;SDS011;55596;53.554;9.916;2022-10-16T10:12:50;5.47;;;1.70;;
17796;SDS011;55596;53.554;9.916;2022-10-16T10:15:18;7.03;;;1.67;;
17796;SDS011;55596;53.554;9.916;2022-10-16T10:17:48;4.77;;;1.60;;
17796;SDS011;55596;53.554;9.916;2022-10-16T10:20:24;8.37;;;1.53;;
17796;SDS011;55596;53.554;9.916;2022-10-16T10:22:52;4.67;;;1.33;;
17796;SDS011;55596;53.554;9.916;2022-10-16T10:25:24;4.40;;;1.47;;
17796;SDS011;55596;53.554;9.916;2022-10-16T10:28:09;5.77;;;1.60;;
17796;SDS011;55596;53.554;9.916;2022-10-16T10:31:08;4.70;;;1.33;;
17796;SDS011;55596;53.554;9.916;2022-10-16T10:33:44;4.30;;;1.43;;
17796;SDS011;55596;53.554;9.916;2022-10-16T10:36:20;4.37;;;1.50;;
17796;SDS011;55596;53.554;9.916;2022-10-16T10:38:54;5.33;;;1.23;;
17796;SDS011;55596;53.554;9.916;2022-10-16T10:41:28;2.30;;;1.00;;
17796;SDS011;55596;53.554;9.916;2022-10-16T10:44:09;3.07;;;1.00;;
17796;SDS011;55596;53.554;9.916;2022-10-16T10:46:45;7.30;;;1.03;;
17796;SDS011;55596;53.554;9.916;2022-10-16T10:49:24;13.37;;;1.60;;
17796;SDS011;55596;53.554;9.916;2022-10-16T10:52:08;3.80;;;1.33;;
17796;SDS011;55596;53.554;9.916;2022-10-16T10:54:50;5.37;;;1.10;;
17796;SDS011;55596;53.554;9.916;2022-10-16T10:57:25;6.27;;;1.20;;
17796;SDS011;55596;53.554;9.916;2022-10-16T11:00:14;5.90;;;1.07;;
17796;SDS011;55596;53.554;9.916;2022-10-16T11:02:48;4.50;;;1.10;;
17796;SDS011;55596;53.554;9.916;2022-10-16T11:05:35;3.80;;;1.07;;
17796;SDS011;55596;53.554;9.916;2022-10-16T11:08:08;4.73;;;1.17;;
17796;SDS011;55596;53.554;9.916;2022-10-16T11:10:43;5.40;;;1.43;;
17796;SDS011;55596;53.554;9.916;2022-10-16T11:13:19;4.97;;;1.07;;
17796;SDS011;55596;53.554;9.916;2022-10-16T11:15:53;5.07;;;1.23;;
17796;SDS011;55596;53.554;9.916;2022-10-16T11:18:24;3.77;;;0.90;;
17796;SDS011;55596;53.554;9.916;2022-10-16T11:20:59;4.63;;;0.90;;
17796;SDS011;55596;53.554;9.916;2022-10-16T11:23:31;6.40;;;1.03;;
17796;SDS011;55596;53.554;9.916;2022-10-16T11:26:06;3.70;;;0.90;;
17796;SDS011;55596;53.554;9.916;2022-10-16T11:28:42;4.03;;;1.03;;
17796;SDS011;55596;53.554;9.916;2022-10-16T11:31:13;5.10;;;1.03;;
17796;SDS011;55596;53.554;9.916;2022-10-16T11:33:44;3.47;;;0.90;;
17796;SDS011;55596;53.554;9.916;2022-10-16T11:36:16;4.37;;;1.03;;
17796;SDS011;55596;53.554;9.916;2022-10-16T11:38:51;4.63;;;1.00;;
17796;SDS011;55596;53.554;9.916;2022-10-16T11:41:24;7.07;;;1.17;;
17796;SDS011;55596;53.554;9.916;2022-10-16T11:44:03;3.27;;;0.90;;
17796;SDS011;55596;53.554;9.916;2022-10-16T11:46:40;3.73;;;0.83;;
17796;SDS011;55596;53.554;9.916;2022-10-16T11:49:13;2.63;;;0.90;;
17796;SDS011;55596;53.554;9.916;2022-10-16T11:51:45;5.10;;;0.87;;
17796;SDS011;55596;53.554;9.916;2022-10-16T11:54:22;4.27;;;1.00;;
17796;SDS011;55596;53.554;9.916;2022-10-16T11:56:57;7.07;;;1.10;;
17796;SDS011;55596;53.554;9.916;2022-10-16T11:59:30;6.53;;;1.10;;
17796;SDS011;55596;53.554;9.916;2022-10-16T12:02:11;7.10;;;1.23;;
17796;SDS011;55596;53.554;9.916;2022-10-16T12:04:53;4.80;;;1.07;;
17796;SDS011;55596;53.554;9.916;2022-10-16T12:07:32;3.17;;;1.03;;
17796;SDS011;55596;53.554;9.916;2022-10-16T12:10:10;3.97;;;1.20;;
17796;SDS011;55596;53.554;9.916;2022-10-16T12:12:37;2.77;;;0.80;;
17796;SDS011;55596;53.554;9.916;2022-10-16T12:15:18;5.37;;;1.03;;
17796;SDS011;55596;53.554;9.916;2022-10-16T12:17:49;4.07;;;1.13;;
17796;SDS011;55596;53.554;9.916;2022-10-16T12:20:25;3.47;;;1.07;;
17796;SDS011;55596;53.554;9.916;2022-10-16T12:22:58;3.37;;;1.20;;
17796;SDS011;55596;53.554;9.916;2022-10-16T12:25:27;3.57;;;1.17;;
17796;SDS011;55596;53.554;9.916;2022-10-16T12:27:59;7.47;;;1.10;;
17796;SDS011;55596;53.554;9.916;2022-10-16T12:30:29;4.68;;;1.10;;
17796;SDS011;55596;53.554;9.916;2022-10-16T12:32:58;5.30;;;1.40;;
17796;SDS011;55596;53.554;9.916;2022-10-16T12:35:28;3.70;;;1.30;;
17796;SDS011;55596;53.554;9.916;2022-10-16T12:38:06;3.38;;;1.08;;
17796;SDS011;55596;53.554;9.916;2022-10-16T12:40:41;4.45;;;1.20;;
17796;SDS011;55596;53.554;9.916;2022-10-16T12:43:27;2.65;;;0.88;;
17796;SDS011;55596;53.554;9.916;2022-10-16T12:46:02;5.90;;;1.17;;
17796;SDS011;55596;53.554;9.916;2022-10-16T12:48:31;6.43;;;1.40;;
17796;SDS011;55596;53.554;9.916;2022-10-16T12:51:09;9.50;;;1.23;;
17796;SDS011;55596;53.554;9.916;2022-10-16T12:53:38;4.15;;;1.48;;
17796;SDS011;55596;53.554;9.916;2022-10-16T12:56:09;5.60;;;1.27;;
17796;SDS011;55596;53.554;9.916;2022-10-16T12:58:56;5.65;;;1.40;;
17796;SDS011;55596;53.554;9.916;2022-10-16T13:01:36;4.35;;;1.35;;
17796;SDS011;55596;53.554;9.916;2022-10-16T13:04:22;5.07;;;1.10;;
17796;SDS011;55596;53.554;9.916;2022-10-16T13:07:15;4.88;;;1.38;;
17796;SDS011;55596;53.554;9.916;2022-10-16T13:10:02;7.35;;;1.25;;
17796;SDS011;55596;53.554;9.916;2022-10-16T13:12:44;8.57;;;1.60;;
17796;SDS011;55596;53.554;9.916;2022-10-16T13:15:36;4.57;;;1.27;;
17796;SDS011;55596;53.554;9.916;2022-10-16T13:18:12;3.40;;;1.15;;
17796;SDS011;55596;53.554;9.916;2022-10-16T13:20:51;3.03;;;1.08;;
17796;SDS011;55596;53.554;9.916;2022-10-16T13:23:24;5.28;;;1.30;;
17796;SDS011;55596;53.554;9.916;2022-10-16T13:26:01;3.55;;;1.27;;
17796;SDS011;55596;53.554;9.916;2022-10-16T13:28:35;5.50;;;1.05;;
17796;SDS011;55596;53.554;9.916;2022-10-16T13:31:05;4.10;;;1.30;;
17796;SDS011;55596;53.554;9.916;2022-10-16T13:33:41;6.10;;;1.60;;
17796;SDS011;55596;53.554;9.916;2022-10-16T13:36:17;5.40;;;1.52;;
17796;SDS011;55596;53.554;9.916;2022-10-16T13:38:46;4.22;;;1.23;;
17796;SDS011;55596;53.554;9.916;2022-10-16T13:41:15;6.07;;;1.35;;
17796;SDS011;55596;53.554;9.916;2022-10-16T13:43:45;4.35;;;1.27;;
17796;SDS011;55596;53.554;9.916;2022-10-16T13:46:16;2.85;;;1.13;;
17796;SDS011;55596;53.554;9.916;2022-10-16T13:48:45;9.63;;;1.33;;
17796;SDS011;55596;53.554;9.916;2022-10-16T13:51:23;5.22;;;1.17;;
17796;SDS011;55596;53.554;9.916;2022-10-16T13:53:52;5.53;;;1.33;;
17796;SDS011;55596;53.554;9.916;2022-10-16T13:56:24;4.93;;;1.20;;
17796;SDS011;55596;53.554;9.916;2022-10-16T13:58:59;5.07;;;1.20;;
17796;SDS011;55596;53.554;9.916;2022-10-16T14:01:27;3.72;;;1.10;;
17796;SDS011;55596;53.554;9.916;2022-10-16T14:04:00;6.03;;;1.50;;
17796;SDS011;55596;53.554;9.916;2022-10-16T14:06:30;7.68;;;1.80;;
17796;SDS011;55596;53.554;9.916;2022-10-16T14:08:59;7.82;;;1.50;;
17796;SDS011;55596;53.554;9.916;2022-10-16T14:11:30;4.65;;;1.50;;
17796;SDS011;55596;53.554;9.916;2022-10-16T14:14:00;4.68;;;1.27;;
17796;SDS011;55596;53.554;9.916;2022-10-16T14:16:29;4.05;;;1.35;;
17796;SDS011;55596;53.554;9.916;2022-10-16T14:18:57;2.40;;;0.82;;
17796;SDS011;55596;53.554;9.916;2022-10-16T14:21:30;3.20;;;1.10;;
17796;SDS011;55596;53.554;9.916;2022-10-16T14:23:58;4.47;;;1.35;;
17796;SDS011;55596;53.554;9.916;2022-10-16T14:26:26;2.97;;;1.10;;
17796;SDS011;55596;53.554;9.916;2022-10-16T14:29:11;5.40;;;1.30;;
17796;SDS011;55596;53.554;9.916;2022-10-16T14:31:40;4.55;;;1.30;;
17796;SDS011;55596;53.554;9.916;2022-10-16T14:34:24;5.13;;;1.27;;
17796;SDS011;55596;53.554;9.916;2022-10-16T14:36:53;6.03;;;1.33;;
17796;SDS011;55596;53.554;9.916;2022-10-16T14:39:21;5.00;;;1.45;;
17796;SDS011;55596;53.554;9.916;2022-10-16T14:41:50;8.02;;;1.58;;
17796;SDS011;55596;53.554;9.916;2022-10-16T14:44:19;7.20;;;1.67;;
17796;SDS011;55596;53.554;9.916;2022-10-16T14:46:57;8.68;;;1.73;;
17796;SDS011;55596;53.554;9.916;2022-10-16T14:49:25;6.95;;;1.65;;
17796;SDS011;55596;53.554;9.916;2022-10-16T14:51:53;4.07;;;1.35;;
17796;SDS011;55596;53.554;9.916;2022-10-16T14:54:20;5.17;;;1.73;;
17796;SDS011;55596;53.554;9.916;2022-10-16T14:56:47;6.10;;;1.30;;
17796;SDS011;55596;53.554;9.916;2022-10-16T14:59:18;5.18;;;1.20;;
17796;SDS011;55596;53.554;9.916;2022-10-16T15:01:51;7.43;;;1.80;;
17796;SDS011;55596;53.554;9.916;2022-10-16T15:04:18;5.00;;;1.10;;
17796;SDS011;55596;53.554;9.916;2022-10-16T15:06:45;8.77;;;1.50;;
17796;SDS011;55596;53.554;9.916;2022-10-16T15:09:12;8.33;;;1.63;;
17796;SDS011;55596;53.554;9.916;2022-10-16T15:11:39;7.73;;;1.30;;